EAGO2: Mountain Fork Riv, Eagletown,

Data processed at Fri Dec 08 2017 23:39


All information presented herein is the property of the government of the United States of America and may be revised or deleted at any time without prior notice.
Dissemination of this information without the expressed written consent of the Public Affairs Office, Tulsa District U.S. Army Corps of Engineers is strictly prohibited.
These data are gathered electronically and, as presented, have not undergone any form of quality control. These data are not guaranteed to be valid or correct.
Go to home page.
Go to station list.

Upstream stations:

Downstream station:
Previous Day
Next Day
Current Day
    
SHEF ID:       EAGO2     Mountain Fork near Eagletown, OK
STATION TYPE:  

               PRECIP     STAGE  RIV-FLOW  BAT-LOAD
                   in        ft       cfs      volt
              Ccp-Rev   Ccp-Rev   Ccp-Rev   Ccp-Rev
(US/Central)
12/06 00:00      ----      3.39      1582     12.33
12/06 01:00      ----      3.18      1411     12.33
12/06 02:00      ----      3.00      1272     12.33
12/06 03:00      ----      2.81      1131     12.33
12/06 04:00      ----      2.66      1024     12.33
12/06 05:00      ----      2.51       922     12.25
12/06 06:00      ----      2.38       837     12.25
12/06 07:00      ----      2.25       755     12.25
12/06 08:00      ----      2.14       689     12.25
12/06 09:00      ----      2.04       631     12.33
12/06 10:00      ----      ----      ----      ----
12/06 11:00      ----      1.86       532      ----
12/06 12:00      ----      1.77       485     12.49
12/06 13:00      ----      1.70       449     12.57
12/06 14:00      ----      1.63       415     12.65
12/06 15:00      ----      1.57       387     12.57
12/06 16:00      ----      1.50       355     12.57
12/06 17:00      ----      1.46       338     12.49
12/06 18:00      ----      1.40       313     12.41
12/06 19:00      ----      1.39       309     12.41
12/06 20:00      ----      1.67       434     12.41
12/06 21:00      ----      2.25       755     12.41
12/06 22:00      ----      2.66      1024     12.33
12/06 23:00      ----      2.72      1066     12.33